Portada
METAR-TAF:

METAR-TAF

Aeroports :

Srinagar, Índia

latitud: 33-59-14N, longitud: 074-46-27E, altitud: 1655 m

METAR: manca

Hora: 18:44 (13:14 UTC)

Pronòstic

L'informe es va fer fa 3 hores i 44 minuts, a les 09:30 UTC
Pronòstic vàlid del 02 a les 12 UTC al 02 a les 24 UTC
Vent 2 kt amb direcció variable
Visibilitat: 1200 m
Cel clar
Evolucionant progressivament
l' 02 a les 14 UTC al 02 a les 15 UTC
Visibilitat: 1500 m
Evolucionant progressivament
l' 02 a les 17 UTC al 02 a les 18 UTC
Visibilitat: 2000 m
boirina
Evolucionant progressivament
l' 02 a les 23 UTC al 02 a les 24 UTC
Visibilitat: 1500 m
boirina

TAF: VISR 020930Z 0212/0224 VRB02KT 1200 HAZE SKC BECMG 0214/0215 1500 HAZE BECMG 0217/0218 2000 BR BECMG 0223/0224 1500 BR

Observacions i pronòstics meteorològics de més de 4000 aeroports (METAR i TAF).

Les estacions disponibles són els punts grocs i vermells al mapa.

Posi el ratolí al punt desitjat per veure el nom de l'estació.

Feu clic per veure les observacions i els pronòstics meteorològics.

Per canviar el mapa: feu clic els botons verds amb una creu de color negre per apropar; al botó verd amb un guió per allunyar la imatge; o en les fletxes verdes per a mapes adjacents.


METAR-TAF: